»·PEaware :: N346CB KOEL-KSBS

N346CB :: KOEL-KSBS

FLIGHT INFORMATION

Flight Status: Arrived
Operator: Privately registered:
United States
More flights under this callsign
Pilot: Ben H. (9170)
Aircraft: CESSNA T210 TURBO CENTURION
(T210)
More flights by this aircraft type
Origin: KOEL Oakley Mun
United States
Destination: KSBS Steamboat Springs/Adams
United States
More flights between these airports :: More routes between these airports
Route: +FFW
File this flight plan on PilotEdge
Remarks:
Altitude:
(Current/Filed)
0ft
Speed:
(Current/Filed)
0kts
Departed: 03-Feb-19 09:36 PM
Arrived: 03-Feb-19 11:30 PM
Distance/Time
Traveled:
291nm/1:54
Distance/Time
To Go:
Arrived

Flight Plot

Page will automatically refresh every two minutes.

Flight plan parsing failed; only flown route is shown


Map Options




Map Legend


Flown Route
Filed Route
Departure Airport
Arrival Airport
Navaid (VOR, NDB)
Fix

Horizontal Profiles

Position Reports

Time Latitude Longitude Heading Altitude Ground
Speed
03-Feb-19 21:34 39.124361 -100.872363 293 6359ft 110kts
03-Feb-19 21:36 39.135802 -100.915354 291 7783ft 109kts
03-Feb-19 21:37 39.145394 -100.951852 290 8990ft 107kts
03-Feb-19 21:37 39.153294 -100.982021 289 9977ft 106kts
03-Feb-19 21:38 39.162700 -101.017991 288 11082ft 109kts
03-Feb-19 21:40 39.174288 -101.062151 287 12336ft 112kts
03-Feb-19 21:40 39.182565 -101.093846 287 13249ft 112kts
03-Feb-19 21:41 39.192526 -101.132070 286 14306ft 114kts
03-Feb-19 21:42 39.202439 -101.170104 286 15326ft 115kts
03-Feb-19 21:44 39.214780 -101.217541 286 16335ft 128kts
03-Feb-19 21:44 39.225243 -101.257469 286 16484ft 153kts
03-Feb-19 21:45 39.239474 -101.312570 286 16481ft 167kts
03-Feb-19 21:46 39.254261 -101.369930 286 16479ft 169kts
03-Feb-19 21:47 39.269116 -101.427604 286 16479ft 169kts
03-Feb-19 21:48 39.283705 -101.484635 286 16478ft 165kts
03-Feb-19 21:49 39.298089 -101.540854 286 16479ft 165kts
03-Feb-19 21:50 39.312683 -101.597899 286 16478ft 168kts
03-Feb-19 21:51 39.327339 -101.655309 286 16481ft 168kts
03-Feb-19 21:52 39.342124 -101.713385 285 16483ft 170kts
03-Feb-19 21:53 39.356806 -101.771184 285 16482ft 167kts
03-Feb-19 21:54 39.370034 -101.823434 285 16483ft 165kts
03-Feb-19 21:55 39.384129 -101.879225 285 16484ft 164kts
03-Feb-19 21:56 39.398345 -101.935597 285 16486ft 164kts
03-Feb-19 21:57 39.412512 -101.991901 285 16489ft 164kts
03-Feb-19 21:58 39.426675 -102.048322 285 16493ft 164kts
03-Feb-19 21:59 39.440709 -102.104354 285 16496ft 164kts
03-Feb-19 22:00 39.454839 -102.160903 285 16498ft 164kts
03-Feb-19 22:01 39.468877 -102.217218 285 16498ft 164kts
03-Feb-19 22:02 39.482911 -102.273649 285 16498ft 164kts
03-Feb-19 22:03 39.496910 -102.330070 285 16497ft 164kts
03-Feb-19 22:04 39.510845 -102.386378 285 16460ft 166kts
03-Feb-19 22:05 39.525500 -102.445696 285 16012ft 175kts
03-Feb-19 22:06 39.539869 -102.503938 285 15996ft 166kts
03-Feb-19 22:07 39.553801 -102.560712 285 15996ft 164kts
03-Feb-19 22:08 39.567642 -102.617202 285 15996ft 164kts
03-Feb-19 22:09 39.579879 -102.667244 284 16001ft 164kts
03-Feb-19 22:10 39.591092 -102.713176 284 16002ft 165kts
03-Feb-19 22:11 39.604929 -102.769976 284 16004ft 165kts
03-Feb-19 22:12 39.618857 -102.827280 284 16009ft 168kts
03-Feb-19 22:13 39.632974 -102.885477 284 16012ft 169kts
03-Feb-19 22:14 39.646472 -102.941283 284 16016ft 169kts
03-Feb-19 22:15 39.660550 -102.999645 284 16018ft 169kts
03-Feb-19 22:16 39.674689 -103.058418 283 16018ft 170kts
03-Feb-19 22:17 39.688692 -103.116760 283 16016ft 167kts
03-Feb-19 22:18 39.702495 -103.174469 282 16017ft 166kts
03-Feb-19 22:19 39.716143 -103.231697 282 16020ft 168kts
03-Feb-19 22:20 39.730219 -103.290765 282 16024ft 171kts
03-Feb-19 22:21 39.744230 -103.349647 282 16026ft 169kts
03-Feb-19 22:22 39.758117 -103.408269 282 16028ft 168kts
03-Feb-19 22:23 39.771709 -103.465653 283 16036ft 162kts
03-Feb-19 22:24 39.784831 -103.521367 283 16037ft 160kts
03-Feb-19 22:25 39.798003 -103.577442 283 15992ft 162kts
03-Feb-19 22:26 39.810515 -103.630735 283 15993ft 162kts
03-Feb-19 22:27 39.823084 -103.684417 282 16003ft 162kts
03-Feb-19 22:28 39.836256 -103.740792 282 16002ft 163kts
03-Feb-19 22:29 39.849482 -103.797539 282 16001ft 163kts
03-Feb-19 22:30 39.862071 -103.851695 282 16001ft 163kts
03-Feb-19 22:31 39.875015 -103.907518 282 16001ft 163kts
03-Feb-19 22:32 39.887727 -103.962465 282 16000ft 163kts
03-Feb-19 22:33 39.900340 -104.017114 282 16000ft 163kts
03-Feb-19 22:34 39.913366 -104.073697 282 15999ft 163kts
03-Feb-19 22:35 39.926403 -104.130474 282 15999ft 163kts
03-Feb-19 22:36 39.939429 -104.187344 282 15999ft 163kts
03-Feb-19 22:37 39.952404 -104.244137 282 15998ft 163kts
03-Feb-19 22:38 39.965330 -104.300854 282 15998ft 163kts
03-Feb-19 22:39 39.978195 -104.357449 282 15997ft 163kts
03-Feb-19 22:40 39.991136 -104.414526 282 15997ft 163kts
03-Feb-19 22:41 40.003420 -104.468839 282 15996ft 163kts
03-Feb-19 22:42 40.016234 -104.525632 282 15995ft 163kts
03-Feb-19 22:43 40.028628 -104.580707 282 15994ft 162kts
03-Feb-19 22:44 40.041246 -104.636916 282 15993ft 162kts
03-Feb-19 22:45 40.053463 -104.691470 282 16010ft 163kts
03-Feb-19 22:46 40.066162 -104.748293 282 16023ft 163kts
03-Feb-19 22:47 40.078928 -104.805554 282 16036ft 163kts
03-Feb-19 22:48 40.091059 -104.860140 282 16049ft 163kts
03-Feb-19 22:49 40.102585 -104.912143 281 16053ft 164kts
03-Feb-19 22:50 40.115484 -104.970515 281 16049ft 166kts
03-Feb-19 22:51 40.128177 -105.028083 280 16045ft 168kts
03-Feb-19 22:52 40.140756 -105.085279 280 16040ft 170kts
03-Feb-19 22:53 40.154185 -105.146506 280 16034ft 173kts
03-Feb-19 22:54 40.166824 -105.204233 280 16028ft 173kts
03-Feb-19 22:55 40.180144 -105.265258 280 16024ft 173kts
03-Feb-19 22:56 40.193313 -105.325779 280 16021ft 173kts
03-Feb-19 22:57 40.206521 -105.386658 280 16024ft 173kts
03-Feb-19 22:58 40.219640 -105.447300 280 16040ft 172kts
03-Feb-19 22:59 40.232712 -105.507893 280 16055ft 172kts
03-Feb-19 23:00 40.245691 -105.568223 280 16069ft 172kts
03-Feb-19 23:01 40.258721 -105.628964 280 16077ft 172kts
03-Feb-19 23:02 40.271657 -105.689453 279 16082ft 171kts
03-Feb-19 23:03 40.276946 -105.749967 262 16082ft 166kts
03-Feb-19 23:04 40.273754 -105.810229 263 15996ft 169kts
03-Feb-19 23:05 40.271306 -105.874437 264 15359ft 179kts
03-Feb-19 23:06 40.269081 -105.938264 264 15079ft 168kts
03-Feb-19 23:07 40.266877 -105.998708 264 15081ft 164kts
03-Feb-19 23:08 40.264678 -106.058480 264 15081ft 164kts
03-Feb-19 23:09 40.262455 -106.118522 264 15081ft 165kts
03-Feb-19 23:10 40.260203 -106.178630 264 15081ft 166kts
03-Feb-19 23:11 40.257965 -106.237561 264 15080ft 167kts
03-Feb-19 23:12 40.255703 -106.296336 264 15080ft 167kts
03-Feb-19 23:13 40.253313 -106.357851 264 14998ft 167kts
03-Feb-19 23:14 40.251025 -106.415507 264 15003ft 166kts
03-Feb-19 23:15 40.248656 -106.474449 264 15006ft 166kts
03-Feb-19 23:16 40.246183 -106.535210 264 15011ft 166kts
03-Feb-19 23:17 40.243697 -106.595550 264 15015ft 166kts
03-Feb-19 23:18 40.241306 -106.652852 263 15021ft 166kts
03-Feb-19 23:19 40.238841 -106.711201 263 15030ft 167kts
03-Feb-19 23:20 40.236281 -106.772046 263 14590ft 166kts
03-Feb-19 23:21 40.254675 -106.823104 333 13751ft 181kts
03-Feb-19 23:22 40.305605 -106.824320 353 12709ft 181kts
03-Feb-19 23:23 40.355117 -106.823845 354 11670ft 174kts
03-Feb-19 23:24 40.402327 -106.820734 357 10629ft 167kts
03-Feb-19 23:26 40.447783 -106.820640 330 9691ft 148kts
03-Feb-19 23:27 40.475773 -106.837404 325 9035ft 98kts
03-Feb-19 23:28 40.498162 -106.853382 320 7638ft 84kts
03-Feb-19 23:29 40.517124 -106.866922 330 6853ft 44kts
03-Feb-19 23:30 40.518203 -106.865625 83 6853ft 0kts
03-Feb-19 23:31 40.518253 -106.865490 56 6853ft 0kts
03-Feb-19 23:32 40.518253 -106.865490 56 6853ft 0kts
03-Feb-19 23:33 40.518253 -106.865490 56 6853ft 0kts
03-Feb-19 23:34 40.518253 -106.865490 56 6853ft 0kts

Navigation Log

Ident Type
Flight plan parsing failed, navigation log unavailable